Time;durP1;ratioP1;P1;durP2;ratioP2;P2;SDS_P1;SDS_P2;PMS_P1;PMS_P2;Temp;Humidity;BMP_temperature;BMP_pressure;BME280_temperature;BME280_humidity;BME280_pressure;Samples;Min_cycle;Max_cycle;Signal;HPM_P1;HPM_P2
2023/06/14 00:01:23;;;;;;;3.78;1.80;;;;;;;14.26;55.48;101118.53;7395330;19;20018;-67
2023/06/14 00:03:52;;;;;;;2.15;1.92;;;;;;;14.20;55.72;101109.97;7395524;19;20035;-67
2023/06/14 00:06:20;;;;;;;2.10;1.70;;;;;;;14.14;55.91;101118.91;7395253;19;20039;-67
2023/06/14 00:08:51;;;;;;;2.95;1.70;;;;;;;14.07;56.16;101115.59;7394756;19;20014;-67
2023/06/14 00:11:20;;;;;;;3.25;1.98;;;;;;;14.00;56.35;101116.69;7396427;19;20506;-67
2023/06/14 00:13:48;;;;;;;3.25;1.88;;;;;;;13.93;56.53;101116.03;7395216;19;20538;-67
2023/06/14 00:16:19;;;;;;;2.72;2.03;;;;;;;13.88;56.48;101122.34;7394846;19;20039;-67
2023/06/14 00:18:47;;;;;;;3.03;2.30;;;;;;;13.79;56.68;101126.97;7396535;19;20025;-67
2023/06/14 00:21:16;;;;;;;4.30;2.17;;;;;;;13.75;57.08;101124.47;7396510;19;20022;-67
2023/06/14 00:23:44;;;;;;;3.60;2.05;;;;;;;13.70;57.13;101127.25;7395392;19;20019;-67
2023/06/14 00:26:16;;;;;;;6.30;2.05;;;;;;;13.64;57.48;101122.16;7394119;19;20380;-66
2023/06/14 00:28:44;;;;;;;3.10;2.10;;;;;;;13.59;57.53;101126.69;7394091;19;20011;-67
2023/06/14 00:31:13;;;;;;;3.22;2.50;;;;;;;13.54;57.69;101124.19;7395748;19;20031;-67
2023/06/14 00:33:41;;;;;;;2.58;2.35;;;;;;;13.48;57.83;101119.97;7395094;19;20022;-67
2023/06/14 00:36:09;;;;;;;4.18;2.47;;;;;;;13.43;58.05;101119.19;7395605;19;20384;-66
2023/06/14 00:38:38;;;;;;;4.03;2.22;;;;;;;13.40;58.28;101127.19;7393940;19;20015;-67
2023/06/14 00:41:07;;;;;;;3.63;2.03;;;;;;;13.35;58.46;101129.91;7394083;19;20534;-67
2023/06/14 00:43:38;;;;;;;4.97;1.73;;;;;;;13.29;58.68;101127.44;7393645;19;20035;-67
2023/06/14 00:46:06;;;;;;;2.25;2.05;;;;;;;13.26;58.82;101121.41;7394437;19;20078;-67
2023/06/14 00:48:36;;;;;;;5.63;2.25;;;;;;;13.20;59.17;101127.69;7395641;19;20022;-67
2023/06/14 00:51:05;;;;;;;3.17;2.55;;;;;;;13.15;59.36;101126.97;7394304;19;20023;-67
2023/06/14 00:53:35;;;;;;;5.75;2.20;;;;;;;13.10;59.29;101116.53;7394696;19;20011;-67
2023/06/14 00:56:04;;;;;;;4.00;2.65;;;;;;;13.05;59.63;101121.06;7395834;19;20021;-67
2023/06/14 00:58:34;;;;;;;5.55;2.33;;;;;;;13.01;59.90;101117.63;7393775;19;20036;-67
2023/06/14 01:01:05;;;;;;;6.28;2.38;;;;;;;12.94;60.16;101118.72;7396581;19;20019;-67
2023/06/14 01:03:34;;;;;;;2.70;2.40;;;;;;;12.91;60.24;101120.56;7394344;19;20359;-67
2023/06/14 01:06:26;;;;;;;6.50;2.45;;;;;;;12.85;60.72;101127.72;7393276;19;20488;-67
2023/06/14 01:09:06;;;;;;;5.40;2.20;;;;;;;12.78;60.78;101126.13;7395568;19;20074;-67
2023/06/14 01:11:40;;;;;;;2.78;2.38;;;;;;;12.73;60.81;101125.38;7395401;19;20019;-67
2023/06/14 01:14:08;;;;;;;;;;;;;;;12.69;60.77;101132.47;7394995;19;20058;-65
2023/06/14 01:16:40;;;;;;;3.45;2.40;;;;;;;12.65;60.82;101135.22;7394919;19;19930;-66
2023/06/14 01:19:13;;;;;;;4.05;2.50;;;;;;;12.61;61.08;101136.19;7393501;19;20014;-65
2023/06/14 01:21:42;;;;;;;2.85;2.55;;;;;;;12.59;61.34;101135.41;7392627;19;20031;-65
2023/06/14 01:24:13;;;;;;;2.97;2.40;;;;;;;12.55;61.68;101135.44;7392780;19;20018;-65
2023/06/14 01:26:45;;;;;;;2.70;2.47;;;;;;;12.53;61.75;101131.97;7393111;19;20018;-66
2023/06/14 01:29:17;;;;;;;4.28;2.70;;;;;;;12.49;62.08;101135.59;7395058;19;20046;-65
2023/06/14 01:31:46;;;;;;;3.10;2.75;;;;;;;12.46;62.31;101143.56;7394395;19;20365;-65
2023/06/14 01:34:15;;;;;;;3.78;2.72;;;;;;;12.44;62.49;101141.88;7392902;19;20031;-66
2023/06/14 01:36:46;;;;;;;3.03;2.72;;;;;;;12.39;62.75;101142.81;7394404;19;20025;-65
2023/06/14 01:39:18;;;;;;;4.13;2.83;;;;;;;12.36;62.95;101134.16;7397371;19;20414;-65
2023/06/14 01:41:50;;;;;;;4.15;2.92;;;;;;;12.34;63.11;101141.22;7401427;19;20436;-66
2023/06/14 01:44:21;;;;;;;3.97;2.80;;;;;;;12.31;62.99;101141.25;7399519;19;20018;-66
2023/06/14 01:46:50;;;;;;;4.13;2.80;;;;;;;12.30;63.36;101142.19;7399260;19;20419;-65
2023/06/14 01:49:19;;;;;;;4.22;2.78;;;;;;;12.28;63.79;101136.09;7401117;19;20031;-65
2023/06/14 01:51:47;;;;;;;4.32;3.08;;;;;;;12.23;63.89;101136.19;7401132;19;20010;-66
2023/06/14 01:54:18;;;;;;;4.13;2.90;;;;;;;12.21;64.20;101138.84;7398599;19;20078;-66
2023/06/14 01:56:47;;;;;;;3.28;2.70;;;;;;;12.18;64.28;101131.03;7401760;19;20023;-65
2023/06/14 01:59:15;;;;;;;3.42;2.88;;;;;;;12.15;64.43;101136.34;7400790;19;20560;-65
2023/06/14 02:01:44;;;;;;;2.90;2.63;;;;;;;12.14;64.58;101137.25;7401038;19;20018;-64
2023/06/14 02:04:13;;;;;;;5.20;3.13;;;;;;;12.14;64.79;101141.66;7398260;19;20015;-66
2023/06/14 02:06:41;;;;;;;5.03;3.50;;;;;;;12.14;64.74;101141.66;7399188;19;20022;-66
2023/06/14 02:09:09;;;;;;;4.22;3.05;;;;;;;12.13;64.88;101138.19;7398858;19;20031;-65
2023/06/14 02:11:40;;;;;;;3.40;2.70;;;;;;;12.13;65.09;101143.44;7401667;19;20019;-67
2023/06/14 02:14:11;;;;;;;5.80;3.13;;;;;;;12.13;65.09;101147.81;7399748;19;20415;-67
2023/06/14 02:16:40;;;;;;;7.07;4.35;;;;;;;12.12;65.40;101146.06;7398496;19;20043;-66
2023/06/14 02:19:08;;;;;;;4.95;3.67;;;;;;;12.10;65.41;101143.47;7397891;19;20035;-66
2023/06/14 02:21:37;;;;;;;4.63;3.42;;;;;;;12.10;65.48;101147.91;7400359;19;20023;-66
2023/06/14 02:24:06;;;;;;;4.68;3.30;;;;;;;12.06;65.64;101150.56;7397381;19;20432;-65
2023/06/14 02:26:34;;;;;;;7.68;3.30;;;;;;;12.04;65.76;101143.63;7398854;19;20019;-65
2023/06/14 02:29:05;;;;;;;3.58;2.97;;;;;;;11.99;65.96;101140.22;7399618;19;20380;-66
2023/06/14 02:31:34;;;;;;;6.07;3.80;;;;;;;11.96;66.07;101140.31;7400404;19;20040;-65
2023/06/14 02:34:02;;;;;;;3.67;3.25;;;;;;;11.93;66.27;101141.19;7398224;19;20018;-66
2023/06/14 02:36:32;;;;;;;4.32;3.03;;;;;;;11.90;66.40;101144.75;7397199;19;20074;-66
2023/06/14 02:39:00;;;;;;;6.93;3.78;;;;;;;11.88;66.42;101143.06;7399556;19;20019;-66
2023/06/14 02:41:29;;;;;;;4.50;3.42;;;;;;;11.86;66.87;101147.47;7397124;19;20023;-66
2023/06/14 02:43:58;;;;;;;3.80;3.35;;;;;;;11.86;66.76;101137.81;7397742;19;20034;-66
2023/06/14 02:46:29;;;;;;;4.53;3.33;;;;;;;11.86;66.84;101142.22;7399389;19;20021;-66
2023/06/14 02:48:58;;;;;;;5.13;3.53;;;;;;;11.84;67.00;101142.25;7399283;19;20038;-67
2023/06/14 02:51:26;;;;;;;5.43;3.53;;;;;;;11.84;67.05;101142.25;7394624;19;20026;-66
2023/06/14 02:53:55;;;;;;;4.60;3.63;;;;;;;11.83;67.27;101139.66;7398012;19;20031;-67
2023/06/14 02:56:23;;;;;;;4.10;3.63;;;;;;;11.81;67.36;101139.66;7398907;19;20425;-67
2023/06/14 02:58:58;;;;;;;5.03;3.38;;;;;;;11.78;67.43;101139.75;7398915;19;20478;-67
2023/06/14 03:01:34;;;;;;;4.00;3.60;;;;;;;11.78;67.81;101133.59;7399214;19;20028;-66
2023/06/14 03:04:03;;;;;;;4.38;3.78;;;;;;;11.75;67.75;101145.03;7396337;19;20077;-64
2023/06/14 03:06:33;;;;;;;6.38;3.33;;;;;;;11.74;67.98;101143.34;7396925;19;20015;-66
2023/06/14 03:09:04;;;;;;;5.32;3.67;;;;;;;11.72;67.95;101145.13;7396743;19;20082;-66
2023/06/14 03:11:33;;;;;;;7.22;5.10;;;;;;;11.71;68.02;101140.75;7395508;19;20010;-66
2023/06/14 03:14:03;;;;;;;10.57;6.90;;;;;;;11.69;68.13;101146.06;7396668;19;20018;-66
2023/06/14 03:16:35;;;;;;;5.20;4.50;;;;;;;11.69;68.45;101147.78;7397836;19;20038;-65
2023/06/14 03:19:03;;;;;;;9.50;6.10;;;;;;;11.68;68.48;101154.81;7398751;19;20034;-65
2023/06/14 03:21:32;;;;;;;5.93;3.92;;;;;;;11.68;68.61;101161.88;7396257;19;20018;-66
2023/06/14 03:24:01;;;;;;;5.10;3.95;;;;;;;11.67;68.60;101157.50;7396885;19;20055;-65
2023/06/14 03:26:30;;;;;;;5.65;3.60;;;;;;;11.67;68.78;101165.38;7397183;19;20014;-65
2023/06/14 03:29:20;;;;;;;4.85;4.30;;;;;;;11.66;68.86;101174.16;7397583;19;20486;-65
2023/06/14 03:32:02;;;;;;;5.82;4.80;;;;;;;11.64;68.94;101173.31;7395824;19;20022;-65
2023/06/14 03:34:31;;;;;;;5.70;4.63;;;;;;;11.64;69.08;101173.31;7395647;19;20023;-67
2023/06/14 03:36:59;;;;;;;6.95;4.30;;;;;;;11.63;69.29;101182.13;7397418;19;20098;-66
2023/06/14 03:39:46;;;;;;;6.00;4.80;;;;;;;11.62;69.40;101172.50;7395385;19;20082;-66
2023/06/14 03:42:15;;;;;;;5.72;5.20;;;;;;;11.62;69.32;101185.63;7395181;19;20038;-66
2023/06/14 03:44:43;;;;;;;5.63;4.00;;;;;;;11.62;69.52;101186.47;7394960;19;20557;-67
2023/06/14 03:47:14;;;;;;;6.32;4.90;;;;;;;11.64;69.70;101178.56;7395327;19;20086;-65
2023/06/14 03:49:43;;;;;;;7.03;4.90;;;;;;;11.65;69.76;101188.19;7396064;19;20014;-65
2023/06/14 03:52:12;;;;;;;6.75;4.45;;;;;;;11.66;69.83;101185.53;7396568;19;20022;-64
2023/06/14 03:54:43;;;;;;;7.70;4.43;;;;;;;11.67;69.93;101187.25;7394932;19;20022;-66
2023/06/14 03:57:11;;;;;;;6.30;4.80;;;;;;;11.67;70.10;101184.63;7397266;19;20019;-65
2023/06/14 03:59:41;;;;;;;5.63;4.47;;;;;;;11.68;70.16;101183.75;7396341;19;20502;-65
2023/06/14 04:02:10;;;;;;;6.10;4.78;;;;;;;11.70;70.26;101181.97;7395499;19;20015;-66
2023/06/14 04:04:44;;;;;;;6.10;5.20;;;;;;;11.72;70.36;101188.03;7394836;19;20086;-66
2023/06/14 04:07:12;;;;;;;7.90;5.22;;;;;;;11.74;70.41;101186.25;7394958;19;20034;-66
2023/06/14 04:09:41;;;;;;;7.75;5.40;;;;;;;11.77;70.47;101181.84;7396349;19;20426;-65
2023/06/14 04:12:11;;;;;;;10.40;5.47;;;;;;;11.79;70.62;101186.16;7396555;19;20090;-66
2023/06/14 04:14:40;;;;;;;9.15;5.20;;;;;;;11.81;70.74;101180.88;7395015;19;20388;-65
2023/06/14 04:17:09;;;;;;;9.98;5.40;;;;;;;11.84;70.93;101186.06;7396413;19;20018;-67
2023/06/14 04:19:37;;;;;;;8.32;4.70;;;;;;;11.87;70.88;101196.53;7393495;19;20082;-66
2023/06/14 04:22:10;;;;;;;11.18;5.60;;;;;;;11.89;71.02;101189.47;7393518;19;20029;-66
2023/06/14 04:24:39;;;;;;;6.10;5.10;;;;;;;11.93;70.96;101201.69;7394236;19;20485;-66
2023/06/14 04:27:07;;;;;;;7.47;5.63;;;;;;;11.94;70.94;101192.00;7393954;19;20082;-66
2023/06/14 04:29:36;;;;;;;8.07;5.80;;;;;;;11.99;71.16;101203.34;7393943;19;20040;-66
2023/06/14 04:32:06;;;;;;;9.48;6.38;;;;;;;12.01;71.57;101198.91;7393865;19;20014;-66
2023/06/14 04:34:37;;;;;;;6.20;5.60;;;;;;;12.04;71.35;101207.63;7393967;19;20014;-67
2023/06/14 04:37:09;;;;;;;8.93;5.55;;;;;;;12.10;71.53;101205.75;7395020;19;20007;-65
2023/06/14 04:39:38;;;;;;;7.75;5.75;;;;;;;12.13;71.54;101203.03;7393521;19;20031;-66
2023/06/14 04:42:07;;;;;;;6.55;5.80;;;;;;;12.16;71.56;101203.84;7395263;19;20082;-66
2023/06/14 04:44:36;;;;;;;8.68;5.60;;;;;;;12.21;71.59;101206.41;7393391;19;20035;-66
2023/06/14 04:47:06;;;;;;;7.18;5.90;;;;;;;12.27;71.67;101215.91;7392788;19;20086;-66
2023/06/14 04:49:35;;;;;;;12.52;5.43;;;;;;;12.31;71.69;101204.41;7393622;19;20018;-66
2023/06/14 04:52:04;;;;;;;6.57;5.50;;;;;;;12.35;71.64;101209.59;7394607;19;20086;-67
2023/06/14 04:54:37;;;;;;;8.73;6.30;;;;;;;12.43;71.78;101209.41;7392989;19;20018;-67
2023/06/14 04:57:06;;;;;;;9.20;7.35;;;;;;;12.50;71.51;101202.28;7394007;19;20015;-66
2023/06/14 04:59:36;;;;;;;9.00;7.45;;;;;;;12.57;71.47;101203.00;7393552;19;20362;-67
2023/06/14 05:02:06;;;;;;;9.32;6.68;;;;;;;12.62;71.33;101207.22;7392403;19;20018;-66
2023/06/14 05:04:39;;;;;;;10.43;7.25;;;;;;;12.70;71.25;101207.03;7391949;19;20047;-66
2023/06/14 05:07:09;;;;;;;8.27;6.67;;;;;;;12.76;71.08;101212.19;7392531;19;20086;-65
2023/06/14 05:09:40;;;;;;;8.80;6.68;;;;;;;12.85;71.29;101221.63;7394171;19;20018;-67
2023/06/14 05:12:10;;;;;;;7.90;6.43;;;;;;;12.92;71.08;101223.22;7394567;19;20078;-65
2023/06/14 05:14:39;;;;;;;7.57;6.22;;;;;;;12.98;71.04;101220.44;7395945;19;20014;-66
2023/06/14 05:17:09;;;;;;;14.25;7.57;;;;;;;13.04;70.84;101224.69;7398841;19;20030;-67
2023/06/14 05:19:37;;;;;;;8.75;6.97;;;;;;;13.11;70.77;101223.63;7400972;19;20014;-67
2023/06/14 05:22:06;;;;;;;10.82;6.30;;;;;;;13.19;70.55;101224.31;7397151;19;20061;-67
2023/06/14 05:24:39;;;;;;;7.78;6.47;;;;;;;13.26;70.53;101222.41;7396988;19;20042;-68
2023/06/14 05:27:10;;;;;;;10.82;6.95;;;;;;;13.32;70.24;101229.25;7400237;19;20035;-66
2023/06/14 05:29:40;;;;;;;8.57;7.15;;;;;;;13.38;70.09;101223.03;7400853;19;20355;-68
2023/06/14 05:32:09;;;;;;;8.90;7.20;;;;;;;13.44;70.09;101226.34;7401059;19;20018;-66
2023/06/14 05:34:38;;;;;;;8.68;6.18;;;;;;;13.51;69.91;101222.66;7398732;19;20027;-66
2023/06/14 05:37:07;;;;;;;6.80;5.88;;;;;;;13.61;69.64;101219.78;7401537;19;20086;-67
2023/06/14 05:39:35;;;;;;;8.85;6.38;;;;;;;13.68;69.44;101221.34;7397908;19;20018;-67
2023/06/14 05:42:04;;;;;;;7.10;6.13;;;;;;;13.77;69.29;101228.13;7398115;19;20062;-67
2023/06/14 05:44:35;;;;;;;6.97;6.28;;;;;;;13.86;69.03;101230.50;7398566;19;20024;-67
2023/06/14 05:47:03;;;;;;;7.63;6.80;;;;;;;13.93;68.73;101220.69;7398217;19;20018;-66
2023/06/14 05:49:32;;;;;;;8.93;6.45;;;;;;;14.01;68.51;101223.94;7400879;19;20074;-66
2023/06/14 05:52:00;;;;;;;8.48;6.13;;;;;;;14.10;68.58;101225.47;7400455;19;20082;-66
2023/06/14 05:54:28;;;;;;;8.77;6.20;;;;;;;14.18;68.08;101226.97;7398657;19;20086;-66
2023/06/14 05:57:01;;;;;;;6.65;5.95;;;;;;;14.25;67.76;101232.06;7397945;19;20032;-66
2023/06/14 05:59:29;;;;;;;6.93;5.97;;;;;;;14.30;67.69;101225.72;7400878;19;20015;-65
2023/06/14 06:02:00;;;;;;;6.25;5.65;;;;;;;14.38;67.56;101225.53;7400191;19;20066;-66
2023/06/14 06:04:29;;;;;;;7.18;6.32;;;;;;;14.46;67.39;101233.22;7398368;19;20082;-66
2023/06/14 06:06:57;;;;;;;8.15;6.30;;;;;;;14.54;67.06;101232.97;7400834;19;20070;-66
2023/06/14 06:09:26;;;;;;;8.02;6.55;;;;;;;14.60;66.93;101230.16;7400541;19;20086;-66
2023/06/14 06:11:54;;;;;;;13.07;6.90;;;;;;;14.65;66.78;101226.47;7397560;19;20396;-67
2023/06/14 06:14:23;;;;;;;10.65;6.72;;;;;;;14.71;66.31;101227.19;7398230;19;20019;-67
2023/06/14 06:16:52;;;;;;;9.70;7.30;;;;;;;14.79;66.17;101230.47;7397231;19;20007;-67
2023/06/14 06:19:23;;;;;;;9.40;6.53;;;;;;;14.85;65.97;101226.75;7400270;19;20386;-67
2023/06/14 06:21:51;;;;;;;8.85;6.20;;;;;;;14.92;65.91;101236.22;7397943;19;20042;-67
2023/06/14 06:24:20;;;;;;;11.43;6.78;;;;;;;14.97;65.75;101229.00;7397484;19;20019;-67
2023/06/14 06:26:48;;;;;;;7.32;6.53;;;;;;;15.04;65.59;101227.91;7399589;19;20014;-67
2023/06/14 06:29:17;;;;;;;10.13;6.35;;;;;;;15.10;65.19;101227.72;7399566;19;20433;-67
2023/06/14 06:31:45;;;;;;;11.52;6.75;;;;;;;15.18;65.10;101229.22;7397214;19;20077;-66
2023/06/14 06:34:14;;;;;;;8.95;6.18;;;;;;;15.24;64.98;101223.72;7396367;19;20018;-67
2023/06/14 06:36:45;;;;;;;10.50;6.80;;;;;;;15.31;64.60;101225.25;7399980;19;20018;-67
2023/06/14 06:39:14;;;;;;;7.88;6.00;;;;;;;15.40;64.36;101229.38;7399219;19;20432;-68
2023/06/14 06:41:43;;;;;;;8.32;6.22;;;;;;;15.50;64.10;101233.41;7397091;19;20018;-67
2023/06/14 06:44:12;;;;;;;6.90;6.20;;;;;;;15.60;63.85;101234.81;7397321;19;20494;-68
2023/06/14 06:46:42;;;;;;;7.03;5.82;;;;;;;15.71;63.59;101238.88;7396332;19;20022;-66
2023/06/14 06:49:11;;;;;;;8.35;6.55;;;;;;;15.81;63.37;101240.28;7396180;19;20022;-66
2023/06/14 06:51:44;;;;;;;7.32;5.80;;;;;;;15.91;63.07;101243.47;7398773;19;20025;-66
2023/06/14 06:54:15;;;;;;;6.65;5.55;;;;;;;15.98;62.88;101241.50;7397272;19;20046;-66
2023/06/14 06:56:43;;;;;;;9.98;5.93;;;;;;;16.07;62.30;101242.00;7397054;19;20090;-66
2023/06/14 06:59:13;;;;;;;6.35;5.75;;;;;;;16.16;61.97;101240.78;7396884;19;20018;-66
2023/06/14 07:01:41;;;;;;;6.55;5.15;;;;;;;16.24;61.78;101248.47;7397928;19;20042;-65
2023/06/14 07:04:10;;;;;;;6.95;4.90;;;;;;;16.29;61.59;101247.38;7397586;19;20477;-65
2023/06/14 07:06:38;;;;;;;6.90;5.30;;;;;;;16.36;61.34;101242.69;7399263;19;20074;-68
2023/06/14 07:09:12;;;;;;;9.88;5.32;;;;;;;16.43;60.77;101251.28;7396834;19;20019;-68
2023/06/14 07:11:43;;;;;;;7.82;5.30;;;;;;;16.49;60.59;101264.31;7395901;19;20351;-67
2023/06/14 07:14:11;;;;;;;6.95;5.18;;;;;;;16.55;60.42;101268.47;7396151;19;20074;-67
2023/06/14 07:16:41;;;;;;;5.75;5.00;;;;;;;16.61;60.21;101273.53;7395479;19;20018;-67
2023/06/14 07:19:10;;;;;;;5.25;4.63;;;;;;;16.67;59.62;101275.09;7396133;19;20025;-69
2023/06/14 07:21:39;;;;;;;5.05;4.40;;;;;;;16.74;59.42;101279.22;7395403;19;20018;-66
2023/06/14 07:24:09;;;;;;;5.50;4.97;;;;;;;16.81;58.90;101274.53;7396406;19;20030;-67
2023/06/14 07:26:37;;;;;;;6.20;5.13;;;;;;;16.87;58.60;101269.00;7398578;19;20468;-68
2023/06/14 07:29:08;;;;;;;5.50;5.00;;;;;;;16.93;58.59;101269.69;7395367;19;20022;-67
2023/06/14 07:31:37;;;;;;;5.43;4.82;;;;;;;16.98;58.23;101272.13;7396342;19;20039;-67
2023/06/14 07:34:05;;;;;;;5.78;5.05;;;;;;;17.01;58.01;101266.72;7395774;19;20023;-67
2023/06/14 07:36:34;;;;;;;4.88;4.47;;;;;;;17.07;57.57;101269.13;7396304;19;20039;-67
2023/06/14 07:39:03;;;;;;;5.40;4.60;;;;;;;17.19;57.54;101274.84;7397362;19;20553;-67
2023/06/14 07:41:31;;;;;;;5.07;4.47;;;;;;;17.24;57.01;101272.88;7395334;19;20010;-68
2023/06/14 07:44:00;;;;;;;6.80;5.07;;;;;;;17.26;56.65;101266.56;7396173;19;20015;-66
2023/06/14 07:46:31;;;;;;;7.28;5.68;;;;;;;17.25;56.63;101270.13;7395422;19;20010;-67
2023/06/14 07:49:00;;;;;;;6.63;5.72;;;;;;;17.33;56.60;101268.97;7396954;19;20046;-68
2023/06/14 07:51:28;;;;;;;6.00;4.95;;;;;;;17.38;56.45;101273.13;7396463;19;20561;-67
2023/06/14 07:53:56;;;;;;;5.85;5.25;;;;;;;17.50;56.35;101263.81;7394909;19;20095;-67
2023/06/14 07:56:25;;;;;;;6.15;5.13;;;;;;;17.61;56.11;101268.66;7395084;19;20082;-68
2023/06/14 07:58:53;;;;;;;9.00;6.32;;;;;;;17.71;56.12;101264.66;7396339;19;20387;-67
2023/06/14 08:01:25;;;;;;;7.25;5.97;;;;;;;17.83;56.00;101259.75;7396936;19;20074;-67
2023/06/14 08:03:56;;;;;;;7.75;5.25;;;;;;;17.95;55.85;101261.06;7395797;19;20014;-67
2023/06/14 08:06:24;;;;;;;6.57;5.18;;;;;;;18.08;55.71;101270.16;7396909;19;20095;-67
2023/06/14 08:08:53;;;;;;;10.90;5.50;;;;;;;18.19;55.22;101259.94;7395283;19;20011;-67
2023/06/14 08:11:23;;;;;;;6.25;5.30;;;;;;;18.34;55.04;101257.50;7396711;19;20014;-66
2023/06/14 08:13:52;;;;;;;7.57;6.78;;;;;;;18.50;54.53;101257.66;7395821;19;20042;-67
2023/06/14 08:16:21;;;;;;;6.53;5.65;;;;;;;18.66;54.08;101257.78;7396829;19;20015;-67
2023/06/14 08:18:50;;;;;;;7.43;6.55;;;;;;;18.79;54.24;101258.06;7396315;19;20035;-68
2023/06/14 08:21:21;;;;;;;7.82;6.40;;;;;;;18.91;53.48;101252.19;7393889;19;20014;-67
2023/06/14 08:23:52;;;;;;;7.72;6.93;;;;;;;19.01;53.58;101256.13;7395314;19;20093;-67
2023/06/14 08:26:21;;;;;;;7.15;5.93;;;;;;;19.04;53.41;101249.78;7394630;19;20023;-66
2023/06/14 08:28:50;;;;;;;7.80;6.10;;;;;;;19.12;52.97;101258.25;7394040;19;20022;-67
2023/06/14 08:31:18;;;;;;;7.95;6.88;;;;;;;19.13;52.62;101262.66;7395304;19;20446;-67
2023/06/14 08:33:47;;;;;;;8.98;6.63;;;;;;;19.11;52.82;101253.00;7394617;19;20078;-67
2023/06/14 08:36:15;;;;;;;8.75;5.18;;;;;;;19.09;53.09;101252.22;7394588;19;20422;-68
2023/06/14 08:38:49;;;;;;;5.28;4.78;;;;;;;19.09;52.57;101241.59;7396183;19;20014;-67
2023/06/14 08:41:26;;;;;;;7.15;4.30;;;;;;;19.13;52.12;101251.13;7394104;19;20003;-67
2023/06/14 08:43:54;;;;;;;9.20;5.65;;;;;;;19.17;52.70;101248.25;7394366;19;20019;-67
2023/06/14 08:46:23;;;;;;;6.25;5.22;;;;;;;19.20;52.84;101240.09;7393661;19;20432;-66
2023/06/14 08:48:52;;;;;;;6.22;5.32;;;;;;;19.28;52.51;101237.06;7391378;19;20078;-67
2023/06/14 08:51:22;;;;;;;7.72;6.80;;;;;;;19.37;52.48;101243.72;7394804;19;20545;-66
2023/06/14 08:53:57;;;;;;;6.07;5.47;;;;;;;19.47;51.84;101246.75;7394238;19;20014;-66
2023/06/14 08:56:28;;;;;;;7.32;4.53;;;;;;;19.54;51.90;101243.72;7393517;19;20038;-67
2023/06/14 08:59:01;;;;;;;5.22;4.38;;;;;;;19.63;51.82;101253.03;7393351;19;20078;-67
2023/06/14 09:01:31;;;;;;;9.13;5.05;;;;;;;19.72;50.95;101248.16;7393699;19;20019;-67
2023/06/14 09:03:59;;;;;;;6.30;5.18;;;;;;;19.76;51.21;101250.56;7393595;19;20074;-67
2023/06/14 09:06:28;;;;;;;8.70;4.45;;;;;;;19.77;50.58;101244.31;7394710;19;20021;-68
2023/06/14 09:09:01;;;;;;;5.45;3.90;;;;;;;19.82;50.58;101249.41;7392898;19;20022;-66
2023/06/14 09:11:29;;;;;;;6.00;3.58;;;;;;;19.87;50.47;101247.38;7392325;19;20440;-66
2023/06/14 09:13:57;;;;;;;5.45;3.88;;;;;;;19.91;50.22;101248.09;7392462;19;20022;-66
2023/06/14 09:16:26;;;;;;;6.32;3.58;;;;;;;19.86;49.92;101249.19;7394546;19;20506;-67
2023/06/14 09:18:56;;;;;;;7.22;3.30;;;;;;;19.84;50.18;101252.84;7394693;19;20079;-66
2023/06/14 09:21:25;;;;;;;6.78;4.38;;;;;;;19.86;49.97;101246.50;7392939;19;20074;-66
2023/06/14 09:23:54;;;;;;;7.00;3.90;;;;;;;19.91;49.40;101242.78;7392778;19;20071;-66
2023/06/14 09:26:27;;;;;;;5.82;3.80;;;;;;;19.96;49.35;101252.22;7392559;19;20019;-66
2023/06/14 09:28:56;;;;;;;4.40;3.30;;;;;;;20.04;49.03;101248.28;7393822;19;20036;-66
2023/06/14 09:31:24;;;;;;;6.65;3.67;;;;;;;20.11;48.86;101253.19;7392040;19;20035;-67
2023/06/14 09:33:56;;;;;;;6.82;3.85;;;;;;;20.21;48.36;101252.69;7392539;19;20035;-67
2023/06/14 09:36:27;;;;;;;3.28;2.97;;;;;;;20.31;48.35;101251.28;7393425;19;20085;-67
2023/06/14 09:39:05;;;;;;;4.35;3.53;;;;;;;20.42;47.89;101256.88;7391255;19;20383;-67
2023/06/14 09:41:39;;;;;;;7.82;4.20;;;;;;;20.51;47.21;101255.50;7390826;19;20031;-67
2023/06/14 09:44:08;;;;;;;;;;;;;;;20.57;46.83;101251.63;7393040;19;20014;-66
2023/06/14 09:46:38;;;;;;;7.43;3.15;;;;;;;20.63;47.16;101251.28;7393242;19;19985;-66
2023/06/14 09:49:08;;;;;;;4.82;2.70;;;;;;;20.71;46.83;101253.53;7390870;19;20526;-67
2023/06/14 09:51:39;;;;;;;5.35;3.20;;;;;;;20.77;46.32;101251.38;7393169;19;20502;-68
2023/06/14 09:54:08;;;;;;;4.85;2.78;;;;;;;20.83;46.16;101255.53;7392184;19;20100;-66
2023/06/14 09:56:43;;;;;;;6.13;2.85;;;;;;;20.88;45.52;101240.13;7393190;19;20015;-65
2023/06/14 09:59:12;;;;;;;3.10;2.80;;;;;;;20.99;45.43;101250.16;7391014;19;20010;-67
2023/06/14 10:01:45;;;;;;;3.10;2.80;;;;;;;21.09;45.55;101234.47;7399922;19;20545;-67
2023/06/14 10:04:16;;;;;;;6.13;3.78;;;;;;;21.19;45.17;101240.16;7397979;19;20074;-67
2023/06/14 10:06:48;;;;;;;4.47;2.80;;;;;;;21.30;44.91;101237.69;7399730;19;20074;-67
2023/06/14 10:09:16;;;;;;;4.90;2.88;;;;;;;21.40;44.66;101236.19;7398626;19;20014;-68
2023/06/14 10:11:48;;;;;;;5.32;2.90;;;;;;;21.51;44.18;101240.91;7397577;19;20022;-67
2023/06/14 10:14:18;;;;;;;3.38;2.88;;;;;;;21.62;44.44;101237.59;7397791;19;20085;-67
2023/06/14 10:16:56;;;;;;;3.10;2.80;;;;;;;21.72;43.57;101240.59;7397554;19;20022;-67
2023/06/14 10:19:34;;;;;;;4.25;2.60;;;;;;;21.82;43.15;101236.41;7399078;19;20025;-67
2023/06/14 10:22:06;;;;;;;6.13;2.95;;;;;;;21.89;43.12;101240.41;7399665;19;20367;-67
2023/06/14 10:24:38;;;;;;;8.73;2.90;;;;;;;21.93;43.13;101241.09;7396980;19;20078;-69
2023/06/14 10:27:12;;;;;;;5.63;3.00;;;;;;;21.96;42.66;101227.53;7397244;19;20078;-67
2023/06/14 10:30:05;;;;;;;5.13;3.28;;;;;;;22.02;42.70;101232.50;7398681;19;20018;-68
2023/06/14 10:32:34;;;;;;;5.05;3.45;;;;;;;22.06;42.63;101238.50;7396895;19;20510;-68
2023/06/14 10:35:07;;;;;;;4.25;2.90;;;;;;;22.12;42.82;101224.75;7399468;19;20022;-68
2023/06/14 10:37:36;;;;;;;5.32;3.10;;;;;;;22.19;42.86;101226.09;7399350;19;20021;-67
2023/06/14 10:40:07;;;;;;;5.88;3.13;;;;;;;22.26;42.28;101227.41;7397274;19;20074;-67
2023/06/14 10:42:38;;;;;;;10.52;3.05;;;;;;;22.36;42.00;101222.34;7396241;19;20374;-67
2023/06/14 10:45:08;;;;;;;3.70;2.72;;;;;;;22.47;41.74;101220.81;7399028;19;20082;-66
2023/06/14 10:47:39;;;;;;;8.38;3.33;;;;;;;22.46;41.53;101222.66;7396987;19;20098;-67
2023/06/14 10:50:09;;;;;;;4.60;3.28;;;;;;;22.41;41.64;101222.09;7395947;19;20485;-66
2023/06/14 10:52:41;;;;;;;4.65;3.58;;;;;;;22.37;41.29;101220.53;7396381;19;20064;-67
2023/06/14 10:55:12;;;;;;;4.70;3.22;;;;;;;22.38;41.93;101216.91;7398933;19;20094;-68
2023/06/14 10:57:45;;;;;;;4.30;2.85;;;;;;;22.41;41.20;101198.03;7399060;19;20017;-66
2023/06/14 11:00:16;;;;;;;4.93;2.78;;;;;;;22.44;41.58;101195.16;7399183;19;20043;-67
2023/06/14 11:03:35;;;;;;;4.57;3.10;;;;;;;22.54;39.94;101204.28;7396188;19;20014;-68
2023/06/14 11:06:16;;;;;;;4.88;3.22;;;;;;;22.63;40.57;101200.16;7395525;19;20074;-68
2023/06/14 11:09:18;;;;;;;5.72;2.80;;;;;;;22.67;40.56;101198.13;7397125;19;20022;-67
2023/06/14 11:11:48;;;;;;;6.75;5.25;;;;;;;22.70;40.39;101193.44;7391109;19;20477;-68
2023/06/14 11:14:19;;;;;;;4.50;2.80;;;;;;;22.70;40.56;101197.94;7395193;19;20095;-67
2023/06/14 11:16:51;;;;;;;6.20;3.13;;;;;;;22.72;40.34;101190.66;7394374;19;20026;-67
2023/06/14 11:19:19;;;;;;;3.67;2.90;;;;;;;22.78;40.45;101188.47;7395593;19;20018;-66
2023/06/14 11:21:50;;;;;;;6.25;2.88;;;;;;;22.84;40.62;101189.84;7397017;19;20016;-67
2023/06/14 11:24:19;;;;;;;8.60;5.43;;;;;;;22.97;40.27;101178.34;7395288;19;20035;-67
2023/06/14 11:26:50;;;;;;;6.18;3.35;;;;;;;23.13;39.73;101184.38;7395166;19;20035;-66
2023/06/14 11:29:23;;;;;;;5.22;3.20;;;;;;;23.23;39.81;101179.28;7394975;19;20022;-68
2023/06/14 11:31:51;;;;;;;5.25;3.03;;;;;;;23.29;39.56;101173.50;7397955;19;20094;-67
2023/06/14 11:34:20;;;;;;;8.93;3.05;;;;;;;23.30;39.69;101169.84;7394833;19;20366;-67
2023/06/14 11:36:49;;;;;;;7.78;2.90;;;;;;;23.42;39.13;101170.84;7397651;19;20086;-67
2023/06/14 11:39:17;;;;;;;8.15;3.47;;;;;;;23.52;39.12;101169.22;7396663;19;20015;-67